Time;durP1;ratioP1;P1;durP2;ratioP2;P2;SDS_P1;SDS_P2;PMS_P1;PMS_P2;Temp;Humidity;BMP_temperature;BMP_pressure;BME280_temperature;BME280_humidity;BME280_pressure;Samples;Min_cycle;Max_cycle;Signal;HPM_P1;HPM_P2
2022/08/19 00:00:38;;;;;;;13.77;9.48;;;15.20;99.90;;;;;;5080432;28;20043;-64
2022/08/19 00:03:04;;;;;;;13.70;10.55;;;15.20;99.90;;;;;;5096949;28;20072;-64
2022/08/19 00:05:31;;;;;;;13.95;10.43;;;15.20;99.90;;;;;;5097193;28;20388;-64
2022/08/19 00:07:57;;;;;;;12.38;9.18;;;15.10;99.90;;;;;;5096948;28;20054;-64
2022/08/19 00:10:24;;;;;;;13.73;8.90;;;15.10;99.90;;;;;;5077700;28;20066;-64
2022/08/19 00:12:50;;;;;;;13.00;9.15;;;15.10;99.90;;;;;;5096914;28;20083;-64
2022/08/19 00:15:19;;;;;;;15.63;10.98;;;15.10;99.90;;;;;;5097038;28;20127;-64
2022/08/19 00:17:45;;;;;;;17.80;10.20;;;15.10;99.90;;;;;;5096673;28;20050;-64
2022/08/19 00:20:16;;;;;;;10.63;8.50;;;15.10;99.90;;;;;;5096478;28;20555;-63
2022/08/19 00:22:42;;;;;;;13.82;9.85;;;15.10;99.90;;;;;;5096605;28;20044;-63
2022/08/19 00:25:08;;;;;;;15.15;8.80;;;15.00;99.90;;;;;;5096602;28;20046;-63
2022/08/19 00:27:34;;;;;;;14.88;9.50;;;15.00;99.90;;;;;;5079691;28;20050;-63
2022/08/19 00:30:03;;;;;;;12.68;9.50;;;15.00;99.90;;;;;;5079310;28;20040;-63
2022/08/19 00:32:28;;;;;;;14.15;9.77;;;15.00;99.90;;;;;;5096346;28;20483;-64
2022/08/19 00:34:55;;;;;;;12.90;8.75;;;15.00;99.90;;;;;;5096367;28;20093;-63
2022/08/19 00:37:25;;;;;;;12.75;7.78;;;15.00;99.90;;;;;;5096595;28;20053;-64
2022/08/19 00:39:52;;;;;;;9.00;5.53;;;15.00;99.90;;;;;;5094100;28;20113;-64
2022/08/19 00:42:20;;;;;;;7.97;5.55;;;15.00;99.90;;;;;;5114387;28;20067;-64
2022/08/19 00:44:47;;;;;;;8.20;5.50;;;14.90;99.90;;;;;;5090831;28;20056;-64
2022/08/19 00:47:13;;;;;;;7.95;5.70;;;14.80;99.90;;;;;;5110682;28;20042;-64
2022/08/19 00:49:51;;;;;;;6.55;4.82;;;14.80;99.90;;;;;;5113756;28;20086;-63
2022/08/19 00:52:24;;;;;;;9.50;5.80;;;14.70;99.90;;;;;;5096138;28;20047;-63
2022/08/19 00:54:52;;;;;;;6.40;4.80;;;14.70;99.90;;;;;;5095670;28;20518;-63
2022/08/19 00:57:25;;;;;;;8.38;5.38;;;14.70;99.90;;;;;;5113892;28;20043;-63
2022/08/19 00:59:54;;;;;;;6.65;4.97;;;14.60;99.90;;;;;;5078610;28;20051;-63
2022/08/19 01:02:20;;;;;;;7.97;5.82;;;14.60;99.90;;;;;;5095998;28;20126;-63
2022/08/19 01:04:45;;;;;;;180.82;14.43;;;14.50;99.90;;;;;;5095999;28;20110;-63
2022/08/19 01:07:12;;;;;;;12.07;5.95;;;14.50;99.90;;;;;;5114098;28;20453;-63
2022/08/19 01:09:38;;;;;;;6.28;4.55;;;14.50;99.90;;;;;;5111192;28;20491;-63
2022/08/19 01:12:04;;;;;;;6.13;4.68;;;14.40;99.90;;;;;;5114181;28;20054;-63
2022/08/19 01:14:30;;;;;;;6.85;4.93;;;14.30;99.90;;;;;;5095584;28;20123;-63
2022/08/19 01:16:59;;;;;;;8.20;5.50;;;14.30;99.90;;;;;;5095736;28;20491;-63
2022/08/19 01:19:37;;;;;;;10.23;5.55;;;14.20;99.90;;;;;;5094954;28;20059;-63
2022/08/19 01:22:31;;;;;;;21.00;7.28;;;14.10;99.90;;;;;;5095749;28;20075;-63
2022/08/19 01:24:57;;;;;;;16.80;9.18;;;14.10;99.90;;;;;;5077966;28;20616;-63
2022/08/19 01:27:23;;;;;;;57.22;5.82;;;14.00;99.90;;;;;;5078793;28;20035;-63
2022/08/19 01:29:50;;;;;;;300.48;20.67;;;14.00;99.90;;;;;;5113700;28;20503;-63
2022/08/19 01:32:17;;;;;;;18.50;8.65;;;14.00;99.90;;;;;;5113527;28;20113;-63
2022/08/19 01:34:46;;;;;;;12.55;7.38;;;13.90;99.90;;;;;;5078574;28;20373;-63
2022/08/19 01:37:14;;;;;;;9.32;6.45;;;13.80;99.90;;;;;;5095504;28;20039;-63
2022/08/19 01:39:41;;;;;;;11.82;6.88;;;13.90;99.90;;;;;;5092907;28;20047;-63
2022/08/19 01:42:11;;;;;;;8.00;6.05;;;13.80;99.90;;;;;;5095206;28;20576;-63
2022/08/19 01:44:39;;;;;;;11.52;7.45;;;13.80;99.90;;;;;;5095023;28;20043;-64
2022/08/19 01:47:06;;;;;;;11.18;6.95;;;13.80;99.90;;;;;;5095091;28;20051;-63
2022/08/19 01:49:32;;;;;;;15.90;8.90;;;13.80;99.90;;;;;;5094688;28;20090;-63
2022/08/19 01:52:00;;;;;;;9.73;7.18;;;13.70;99.90;;;;;;5095484;28;20075;-63
2022/08/19 01:54:26;;;;;;;16.75;10.30;;;13.70;99.90;;;;;;5094862;28;20051;-63
2022/08/19 01:56:59;;;;;;;21.20;11.63;;;13.60;99.90;;;;;;5113002;28;20043;-63
2022/08/19 01:59:25;;;;;;;38.47;12.90;;;13.60;99.90;;;;;;5112961;28;20506;-63
2022/08/19 02:01:50;;;;;;;26.58;12.45;;;13.60;99.90;;;;;;5112875;28;20039;-63
2022/08/19 02:04:16;;;;;;;33.65;16.13;;;13.70;99.90;;;;;;5094528;28;20402;-64
2022/08/19 02:06:42;;;;;;;23.27;12.43;;;13.70;99.90;;;;;;5113067;28;20036;-64
2022/08/19 02:09:10;;;;;;;29.67;15.82;;;13.70;99.90;;;;;;5111590;28;20044;-64
2022/08/19 02:11:37;;;;;;;27.63;12.80;;;13.80;99.90;;;;;;5093678;28;20048;-64
2022/08/19 02:14:06;;;;;;;17.42;11.32;;;13.80;99.90;;;;;;5094708;28;20500;-64
2022/08/19 02:16:32;;;;;;;72.18;15.25;;;13.80;99.90;;;;;;5077574;28;20045;-64
2022/08/19 02:19:01;;;;;;;28.73;16.17;;;13.80;99.90;;;;;;5112955;28;20047;-64
2022/08/19 02:21:28;;;;;;;24.35;13.82;;;13.80;99.90;;;;;;5094707;28;20054;-64
2022/08/19 02:23:55;;;;;;;31.58;16.00;;;13.80;99.90;;;;;;5077611;28;20043;-64
2022/08/19 02:26:22;;;;;;;288.52;30.35;;;13.80;99.90;;;;;;5094319;28;20122;-64
2022/08/19 02:28:48;;;;;;;232.48;27.23;;;13.90;99.90;;;;;;5112597;28;20043;-64
2022/08/19 02:31:20;;;;;;;84.25;15.88;;;13.90;99.90;;;;;;5094205;28;20581;-64
2022/08/19 02:33:47;;;;;;;66.57;11.80;;;13.90;99.90;;;;;;5094222;28;20127;-64
2022/08/19 02:36:14;;;;;;;26.35;13.40;;;13.90;99.90;;;;;;5112378;28;20042;-64
2022/08/19 02:38:41;;;;;;;392.63;34.05;;;13.90;99.90;;;;;;5112475;28;20381;-64
2022/08/19 02:41:21;;;;;;;331.38;28.63;;;13.90;99.90;;;;;;5092047;28;20109;-64
2022/08/19 02:43:47;;;;;;;22.48;10.52;;;13.90;99.90;;;;;;5112259;28;20109;-64
2022/08/19 02:46:14;;;;;;;20.88;10.98;;;13.90;99.90;;;;;;5094206;28;20078;-64
2022/08/19 02:48:40;;;;;;;69.25;13.57;;;13.90;99.90;;;;;;5077564;28;20071;-64
2022/08/19 02:51:06;;;;;;;27.55;13.30;;;13.90;99.90;;;;;;5112583;28;20499;-64
2022/08/19 02:53:31;;;;;;;27.25;13.68;;;13.90;99.90;;;;;;5094320;28;20048;-64
2022/08/19 02:55:57;;;;;;;34.67;15.60;;;13.90;99.90;;;;;;5077089;28;20044;-64
2022/08/19 02:58:23;;;;;;;21.95;12.82;;;13.90;99.90;;;;;;5093870;28;20043;-64
2022/08/19 03:00:54;;;;;;;23.23;12.43;;;13.90;99.90;;;;;;5077186;28;20044;-64
2022/08/19 03:03:20;;;;;;;27.73;14.00;;;13.80;99.90;;;;;;5093921;28;20040;-64
2022/08/19 03:05:46;;;;;;;39.55;13.52;;;13.80;99.90;;;;;;5112312;28;20430;-65
2022/08/19 03:08:13;;;;;;;29.77;12.90;;;13.80;99.90;;;;;;5112149;28;20486;-65
2022/08/19 03:10:46;;;;;;;30.25;13.23;;;13.80;99.90;;;;;;5091281;28;20133;-65
2022/08/19 03:13:15;;;;;;;19.45;11.77;;;13.80;99.90;;;;;;5112110;28;20039;-65
2022/08/19 03:15:46;;;;;;;28.75;12.27;;;13.80;99.90;;;;;;5112020;28;20035;-65
2022/08/19 03:18:13;;;;;;;27.02;12.85;;;13.80;99.90;;;;;;5111986;28;20628;-65
2022/08/19 03:20:48;;;;;;;140.27;19.60;;;13.80;99.90;;;;;;5112081;28;20072;-65
2022/08/19 03:23:15;;;;;;;20.05;9.65;;;13.80;99.90;;;;;;5093714;28;20039;-65
2022/08/19 03:25:45;;;;;;;139.02;20.30;;;13.70;99.90;;;;;;5093751;28;20036;-65
2022/08/19 03:28:12;;;;;;;16.55;9.60;;;13.60;99.90;;;;;;5112183;28;20036;-65
2022/08/19 03:30:41;;;;;;;15.68;10.25;;;13.50;99.90;;;;;;5077226;28;20046;-65
2022/08/19 03:33:08;;;;;;;21.27;11.57;;;13.40;99.90;;;;;;5093742;28;20075;-66
2022/08/19 03:35:38;;;;;;;17.23;11.18;;;13.40;99.90;;;;;;5093932;28;20126;-66
2022/08/19 03:38:05;;;;;;;22.02;12.77;;;13.40;99.90;;;;;;5093932;28;20461;-66
2022/08/19 03:40:34;;;;;;;36.88;15.02;;;13.40;99.90;;;;;;5091161;28;20043;-66
2022/08/19 03:43:01;;;;;;;43.53;16.67;;;13.40;99.90;;;;;;5094802;28;20445;-67
2022/08/19 03:45:27;;;;;;;33.67;16.33;;;13.40;99.90;;;;;;5097551;28;20036;-67
2022/08/19 03:47:53;;;;;;;60.63;20.35;;;13.40;99.90;;;;;;5097364;28;20093;-67
2022/08/19 03:50:19;;;;;;;51.45;19.80;;;13.40;99.90;;;;;;5097418;28;20045;-67
2022/08/19 03:52:50;;;;;;;54.78;19.65;;;13.40;99.90;;;;;;5115774;28;20093;-67
2022/08/19 03:55:17;;;;;;;55.53;20.08;;;13.50;99.90;;;;;;5115674;28;20043;-67
2022/08/19 03:57:42;;;;;;;32.13;16.85;;;13.50;99.90;;;;;;5097378;28;20036;-67
2022/08/19 04:00:09;;;;;;;49.13;19.50;;;13.60;99.90;;;;;;5115822;28;20097;-67
2022/08/19 04:02:35;;;;;;;81.03;24.08;;;13.60;99.90;;;;;;5098248;28;20044;-68
2022/08/19 04:05:01;;;;;;;276.73;32.15;;;13.60;99.90;;;;;;5097912;28;20163;-68
2022/08/19 04:07:27;;;;;;;48.30;19.50;;;13.70;99.90;;;;;;5098245;28;20040;-68
2022/08/19 04:09:53;;;;;;;59.28;23.08;;;13.70;99.90;;;;;;5078862;28;20047;-68
2022/08/19 04:12:20;;;;;;;60.05;22.65;;;13.70;99.90;;;;;;5097758;28;20451;-68
2022/08/19 04:14:46;;;;;;;60.83;23.23;;;13.70;99.90;;;;;;5080866;28;20040;-68
2022/08/19 04:17:13;;;;;;;56.60;21.67;;;13.70;99.90;;;;;;5097822;28;20129;-68
2022/08/19 04:19:40;;;;;;;58.20;21.95;;;13.70;99.90;;;;;;5097666;28;20044;-68
2022/08/19 04:22:06;;;;;;;50.38;22.00;;;13.70;99.90;;;;;;5115896;28;20088;-68
2022/08/19 04:24:34;;;;;;;76.10;23.77;;;13.70;99.90;;;;;;5080669;28;20043;-68
2022/08/19 04:27:03;;;;;;;47.33;21.15;;;13.70;99.90;;;;;;5097506;28;20742;-68
2022/08/19 04:29:30;;;;;;;158.23;29.27;;;13.80;99.90;;;;;;5097430;28;20035;-68
2022/08/19 04:31:56;;;;;;;62.05;22.35;;;13.80;99.90;;;;;;5097719;28;20043;-68
2022/08/19 04:34:24;;;;;;;52.25;20.33;;;13.80;99.90;;;;;;5097378;28;20047;-68
2022/08/19 04:36:52;;;;;;;60.42;22.13;;;13.80;99.90;;;;;;5096748;28;20074;-67
2022/08/19 04:39:22;;;;;;;41.30;18.92;;;13.80;99.90;;;;;;5077187;28;20069;-67
2022/08/19 04:44:34;;;;;;;51.42;20.48;;;13.80;99.90;;;;;;5096189;28;20113;-67
2022/08/19 04:47:00;;;;;;;34.90;18.23;;;13.80;99.90;;;;;;5096453;28;20090;-67
2022/08/19 04:49:26;;;;;;;55.80;21.58;;;13.80;99.90;;;;;;5096437;28;20043;-67
2022/08/19 04:51:54;;;;;;;39.25;18.55;;;13.80;99.90;;;;;;5114487;28;20063;-67
2022/08/19 04:54:22;;;;;;;36.72;18.13;;;13.80;99.90;;;;;;5078078;28;20131;-67
2022/08/19 04:56:49;;;;;;;46.90;20.35;;;13.80;99.90;;;;;;5096078;28;20036;-67
2022/08/19 04:59:18;;;;;;;61.28;21.02;;;13.80;99.90;;;;;;5095900;28;20079;-67
2022/08/19 05:01:49;;;;;;;36.72;17.63;;;13.80;99.90;;;;;;5114396;28;20415;-67
2022/08/19 05:04:17;;;;;;;44.40;18.90;;;13.80;99.90;;;;;;5114237;28;20051;-67
2022/08/19 05:06:43;;;;;;;49.97;19.50;;;13.80;99.90;;;;;;5114262;28;20081;-67
2022/08/19 05:09:09;;;;;;;35.28;17.25;;;13.80;99.90;;;;;;5095082;28;20434;-67
2022/08/19 05:11:40;;;;;;;29.75;16.92;;;13.80;99.90;;;;;;5094034;28;20109;-67
2022/08/19 05:14:07;;;;;;;48.05;21.38;;;13.90;99.90;;;;;;5096006;28;20130;-67
2022/08/19 05:16:33;;;;;;;50.65;21.65;;;13.90;99.90;;;;;;5095752;28;20044;-68
2022/08/19 05:24:29;;;;;;;47.90;20.70;;;14.20;99.90;;;;;;5113516;28;20122;-67
2022/08/19 05:26:59;;;;;;;50.83;21.58;;;14.20;99.90;;;;;;5078681;28;20032;-67
2022/08/19 05:29:27;;;;;;;43.30;21.85;;;14.30;99.90;;;;;;5095842;28;20598;-68
2022/08/19 05:31:54;;;;;;;45.67;21.65;;;14.40;99.90;;;;;;5095354;28;20070;-68
2022/08/19 05:34:22;;;;;;;46.65;23.60;;;14.50;99.90;;;;;;5113569;28;20403;-69
2022/08/19 05:36:50;;;;;;;45.08;23.00;;;14.60;99.90;;;;;;5095202;28;20548;-69
2022/08/19 05:39:20;;;;;;;51.08;25.60;;;14.70;99.90;;;;;;5093421;28;20036;-69
2022/08/19 05:41:49;;;;;;;44.58;23.13;;;14.80;99.90;;;;;;5078362;28;20042;-69
2022/08/19 05:44:17;;;;;;;45.38;23.20;;;15.00;99.90;;;;;;5113299;28;20054;-69
2022/08/19 05:46:46;;;;;;;48.13;23.92;;;15.10;99.90;;;;;;5095086;28;20044;-69
2022/08/19 05:49:14;;;;;;;43.40;22.93;;;15.20;99.90;;;;;;5095266;28;20118;-69
2022/08/19 05:51:40;;;;;;;40.65;22.38;;;15.30;99.90;;;;;;5094992;28;20051;-68
2022/08/19 05:54:08;;;;;;;40.30;22.25;;;15.40;99.90;;;;;;5094913;28;20067;-69
2022/08/19 05:56:38;;;;;;;38.17;22.33;;;15.50;99.90;;;;;;5095112;28;20408;-68
2022/08/19 05:59:08;;;;;;;36.17;22.33;;;15.60;99.90;;;;;;5113202;28;20036;-67
2022/08/19 06:01:35;;;;;;;37.97;21.20;;;15.80;99.90;;;;;;5095072;28;20051;-68
2022/08/19 06:04:02;;;;;;;37.38;22.65;;;15.90;99.90;;;;;;5094722;28;20036;-65
2022/08/19 06:06:28;;;;;;;39.72;22.75;;;16.00;99.90;;;;;;5112816;28;20042;-65
2022/08/19 06:08:54;;;;;;;38.13;22.38;;;16.20;99.90;;;;;;5077763;28;20061;-65
2022/08/19 06:11:21;;;;;;;34.13;22.65;;;16.30;99.90;;;;;;5110304;28;20063;-65
2022/08/19 06:13:50;;;;;;;35.45;21.60;;;16.50;99.90;;;;;;5094790;28;20464;-65
2022/08/19 06:16:21;;;;;;;30.90;21.38;;;16.70;99.90;;;;;;5077922;28;20083;-64
2022/08/19 06:18:51;;;;;;;29.25;20.05;;;16.90;99.90;;;;;;5112857;28;20040;-64
2022/08/19 06:21:22;;;;;;;24.83;18.65;;;17.10;99.90;;;;;;5093368;28;20035;-64
2022/08/19 06:23:50;;;;;;;23.38;17.85;;;17.30;99.90;;;;;;5111130;28;20036;-65
2022/08/19 06:26:16;;;;;;;20.05;14.93;;;17.70;99.90;;;;;;5112363;28;20115;-66
2022/08/19 06:28:46;;;;;;;19.38;15.13;;;18.00;99.90;;;;;;5113095;28;20471;-65
2022/08/19 06:34:47;;;;;;;22.55;15.05;;;18.50;99.90;;;;;;5110588;28;20039;-67
2022/08/19 06:37:13;;;;;;;17.52;14.50;;;18.80;99.90;;;;;;5093638;28;20035;-68
2022/08/19 06:39:42;;;;;;;18.00;14.68;;;19.00;99.90;;;;;;5111549;28;20062;-66
2022/08/19 06:42:11;;;;;;;20.77;14.27;;;19.10;99.90;;;;;;5113314;28;20039;-65
2022/08/19 06:44:39;;;;;;;16.10;13.87;;;19.30;99.90;;;;;;5094883;28;20048;-65
2022/08/19 06:47:07;;;;;;;14.45;12.63;;;19.50;99.90;;;;;;5094636;28;20051;-65
2022/08/19 06:49:34;;;;;;;16.77;13.07;;;19.60;99.90;;;;;;5113396;28;20442;-65
2022/08/19 06:52:00;;;;;;;16.30;13.95;;;19.90;99.90;;;;;;5094963;28;20039;-65
2022/08/19 06:54:29;;;;;;;15.00;12.73;;;20.10;99.90;;;;;;5113359;28;20044;-65
2022/08/19 06:56:56;;;;;;;18.27;14.27;;;20.20;99.90;;;;;;5094744;28;20105;-65
2022/08/19 06:59:27;;;;;;;15.63;12.10;;;20.50;99.90;;;;;;5112942;28;20066;-65
2022/08/19 07:01:55;;;;;;;17.23;13.18;;;20.60;99.90;;;;;;5094237;28;20059;-65
2022/08/19 07:04:28;;;;;;;15.23;13.45;;;20.80;99.90;;;;;;5076963;28;20036;-65
2022/08/19 07:07:14;;;;;;;15.55;12.55;;;20.90;99.90;;;;;;5094328;28;20126;-65
2022/08/19 07:09:43;;;;;;;15.45;12.32;;;21.10;99.90;;;;;;5075362;28;20059;-65
2022/08/19 07:12:13;;;;;;;15.02;13.07;;;21.20;99.90;;;;;;5112249;28;20051;-65
2022/08/19 07:14:39;;;;;;;15.55;13.48;;;21.30;99.90;;;;;;5112719;28;20039;-65
2022/08/19 07:17:08;;;;;;;18.35;14.32;;;21.30;99.90;;;;;;5094451;28;20477;-64
2022/08/19 07:19:35;;;;;;;16.00;13.30;;;21.40;99.90;;;;;;5116049;28;20044;-64
2022/08/19 07:22:04;;;;;;;15.48;13.45;;;21.50;99.90;;;;;;5098232;28;20036;-65
2022/08/19 07:24:31;;;;;;;15.13;13.40;;;21.50;99.90;;;;;;5097865;28;20043;-65
2022/08/19 07:27:01;;;;;;;15.95;14.30;;;21.60;99.90;;;;;;5080980;28;20036;-65
2022/08/19 07:29:29;;;;;;;16.98;13.13;;;21.80;99.90;;;;;;5080923;28;20119;-66
2022/08/19 07:31:56;;;;;;;18.58;14.75;;;21.80;99.90;;;;;;5081076;28;20047;-65
2022/08/19 07:34:23;;;;;;;20.27;17.13;;;21.70;99.90;;;;;;5116032;28;20423;-65
2022/08/19 07:36:50;;;;;;;17.45;15.30;;;21.70;99.90;;;;;;5097971;28;20460;-65
2022/08/19 07:39:26;;;;;;;19.00;16.38;;;21.70;99.90;;;;;;5079546;28;20388;-65
2022/08/19 07:41:52;;;;;;;19.70;17.17;;;21.70;99.90;;;;;;5097659;28;20115;-64
2022/08/19 07:44:20;;;;;;;18.10;15.90;;;21.70;99.90;;;;;;5097691;28;20479;-64
2022/08/19 07:46:49;;;;;;;21.80;17.33;;;21.80;99.90;;;;;;5115608;28;20044;-64
2022/08/19 07:49:18;;;;;;;24.40;19.35;;;21.90;99.90;;;;;;5097405;28;20071;-64
2022/08/19 07:51:49;;;;;;;;;;;22.00;99.90;;;;;;5097893;28;20381;-64
2022/08/19 07:54:15;;;;;;;21.48;18.67;;;22.10;99.90;;;;;;5115623;28;20337;-64
2022/08/19 07:56:41;;;;;;;23.33;20.02;;;22.30;99.90;;;;;;5097438;28;20042;-63
2022/08/19 07:59:08;;;;;;;20.90;18.67;;;22.60;99.90;;;;;;5097297;28;20376;-64
2022/08/19 08:01:35;;;;;;;21.67;19.10;;;22.80;99.90;;;;;;5115545;28;20051;-64
2022/08/19 08:09:36;;;;;;;23.15;20.75;;;23.80;99.90;;;;;;5094502;28;20047;-64
2022/08/19 08:12:10;;;;;;;21.05;18.95;;;24.10;99.90;;;;;;5096931;28;20040;-65
2022/08/19 08:14:52;;;;;;;20.10;18.08;;;24.40;99.90;;;;;;5097151;28;20381;-65
2022/08/19 08:17:20;;;;;;;22.83;19.45;;;24.60;99.90;;;;;;5096797;28;20044;-65
2022/08/19 08:19:47;;;;;;;22.95;20.45;;;24.60;99.90;;;;;;5096979;28;20438;-65
2022/08/19 08:25:07;;;;;;;21.13;18.92;;;24.80;99.90;;;;;;5085356;28;20047;-66
2022/08/19 08:27:39;;;;;;;21.77;19.42;;;25.00;99.90;;;;;;5114918;28;20050;-66
2022/08/19 08:30:09;;;;;;;21.52;19.33;;;25.30;99.90;;;;;;5096102;28;20123;-67
2022/08/19 08:32:39;;;;;;;21.20;18.98;;;25.50;99.90;;;;;;5096811;28;20123;-66
2022/08/19 08:35:07;;;;;;;21.83;18.92;;;25.60;99.90;;;;;;5096532;28;20496;-66
2022/08/19 08:37:33;;;;;;;20.98;18.42;;;25.90;99.90;;;;;;5096415;28;20048;-66
2022/08/19 08:39:59;;;;;;;22.25;19.95;;;26.00;99.90;;;;;;5112196;28;20047;-66
2022/08/19 08:42:34;;;;;;;22.42;19.00;;;26.10;99.90;;;;;;5114525;28;20046;-66
2022/08/19 08:45:15;;;;;;;21.05;18.88;;;26.30;99.90;;;;;;5114537;28;20062;-68
2022/08/19 08:48:07;;;;;;;20.05;16.27;;;26.60;99.90;;;;;;5114561;28;20407;-68
2022/08/19 08:50:41;;;;;;;21.88;19.58;;;26.80;99.90;;;;;;5096240;28;20071;-67
2022/08/19 08:53:08;;;;;;;21.17;18.52;;;26.80;99.90;;;;;;5114391;28;20403;-67
2022/08/19 08:55:34;;;;;;;20.17;17.80;;;26.60;99.90;;;;;;5096340;28;20040;-67
2022/08/19 08:58:02;;;;;;;19.75;17.38;;;26.60;99.90;;;;;;5096334;28;20135;-67
2022/08/19 09:00:32;;;;;;;19.40;17.38;;;26.70;99.90;;;;;;5096072;28;20058;-67
2022/08/19 09:03:01;;;;;;;17.70;15.93;;;26.80;99.90;;;;;;5114233;28;20031;-68
2022/08/19 09:05:42;;;;;;;18.63;16.77;;;27.00;99.90;;;;;;5095799;28;20492;-67
2022/08/19 09:08:25;;;;;;;17.17;15.10;;;27.40;99.90;;;;;;5078955;28;20035;-68
2022/08/19 09:10:55;;;;;;;18.67;16.60;;;27.50;99.90;;;;;;5093233;28;20094;-68
2022/08/19 09:14:12;;;;;;;19.63;17.40;;;27.70;99.90;;;;;;5095965;28;20094;-67
2022/08/19 09:16:40;;;;;;;17.00;15.25;;;27.90;99.90;;;;;;4994775;28;20128;-68
2022/08/19 09:19:07;;;;;;;18.55;15.82;;;27.90;99.90;;;;;;5076605;28;20057;-67
2022/08/19 09:21:34;;;;;;;16.15;13.65;;;27.40;99.90;;;;;;5095580;28;20510;-68
2022/08/19 09:24:04;;;;;;;18.80;13.20;;;26.90;99.90;;;;;;5113663;28;20040;-67
2022/08/19 09:26:32;;;;;;;17.17;12.82;;;27.10;99.90;;;;;;5095612;28;20044;-68
2022/08/19 09:28:59;;;;;;;17.92;13.30;;;27.30;99.90;;;;;;5113908;28;20036;-68
2022/08/19 09:31:29;;;;;;;14.90;12.18;;;27.60;99.90;;;;;;5113600;28;20492;-67
2022/08/19 09:33:59;;;;;;;15.48;12.20;;;27.80;99.90;;;;;;5113721;28;20396;-68
2022/08/19 09:36:29;;;;;;;15.40;11.65;;;28.00;99.90;;;;;;5113524;28;20123;-67
2022/08/19 09:38:55;;;;;;;16.15;12.43;;;28.20;99.90;;;;;;5113399;28;20087;-66
2022/08/19 09:41:24;;;;;;;12.98;10.13;;;28.30;99.90;;;;;;5092485;28;20036;-67
2022/08/19 09:43:52;;;;;;;12.93;10.27;;;28.50;99.90;;;;;;5095147;28;20035;-68
2022/08/19 09:46:20;;;;;;;14.25;10.73;;;28.50;99.90;;;;;;5078262;28;20281;-68
2022/08/19 09:48:48;;;;;;;12.75;9.52;;;28.50;99.90;;;;;;5113393;28;20362;-68
2022/08/19 09:51:17;;;;;;;11.65;7.60;;;28.70;99.90;;;;;;5095015;28;20051;-68
2022/08/19 09:53:44;;;;;;;9.60;7.82;;;28.90;99.90;;;;;;5095006;28;20571;-67
2022/08/19 09:56:11;;;;;;;13.50;7.53;;;29.10;99.90;;;;;;5094915;28;20044;-68
2022/08/19 09:58:37;;;;;;;10.23;8.10;;;29.20;98.60;;;;;;5113247;28;20032;-68
2022/08/19 10:01:05;;;;;;;9.35;7.15;;;29.20;99.00;;;;;;5077965;28;20506;-69
2022/08/19 10:03:33;;;;;;;8.85;6.88;;;29.30;99.60;;;;;;5113008;28;20501;-68
2022/08/19 10:06:01;;;;;;;12.73;9.70;;;29.60;97.70;;;;;;5112794;28;20044;-68
2022/08/19 10:08:30;;;;;;;9.13;8.15;;;29.80;97.90;;;;;;5113200;28;20266;-68
2022/08/19 10:10:57;;;;;;;11.52;9.23;;;29.90;97.90;;;;;;5091576;28;20094;-69
2022/08/19 10:13:26;;;;;;;11.23;8.32;;;30.10;97.90;;;;;;5077061;28;20487;-68
2022/08/19 10:15:55;;;;;;;11.07;9.48;;;30.30;97.00;;;;;;5077187;28;20126;-68
2022/08/19 10:18:22;;;;;;;12.95;11.50;;;30.30;97.70;;;;;;5111973;28;20184;-68
2022/08/19 10:20:50;;;;;;;15.23;10.93;;;30.60;97.20;;;;;;5093710;28;20043;-69
2022/08/19 10:23:17;;;;;;;11.90;9.40;;;30.60;95.50;;;;;;5093910;28;20045;-69
2022/08/19 10:25:43;;;;;;;12.63;10.90;;;30.60;95.70;;;;;;5111897;28;20499;-68
2022/08/19 10:28:11;;;;;;;12.73;10.50;;;30.50;96.50;;;;;;5093650;28;20096;-69
2022/08/19 10:30:39;;;;;;;12.15;10.68;;;30.50;95.80;;;;;;5093610;28;20070;-68
2022/08/19 10:33:06;;;;;;;11.20;9.75;;;30.70;93.90;;;;;;5093594;28;20039;-69
2022/08/19 10:35:32;;;;;;;11.60;9.27;;;30.70;93.40;;;;;;5093508;28;20499;-68
2022/08/19 10:37:58;;;;;;;17.65;11.25;;;30.70;93.80;;;;;;5111910;28;20036;-69
2022/08/19 10:40:26;;;;;;;12.30;10.98;;;30.80;93.90;;;;;;5090913;28;20126;-69
2022/08/19 10:42:53;;;;;;;16.25;10.70;;;30.80;93.50;;;;;;5112032;28;20384;-69
2022/08/19 10:45:21;;;;;;;12.18;10.85;;;30.80;93.40;;;;;;5093657;28;20075;-68
2022/08/19 10:47:47;;;;;;;15.68;12.10;;;30.90;93.30;;;;;;5111664;28;20475;-68
2022/08/19 10:53:02;;;;;;;11.45;10.13;;;30.70;92.10;;;;;;5110370;28;20047;-68
2022/08/19 10:58:15;;;;;;;13.98;10.98;;;30.00;93.10;;;;;;5093132;28;20052;-68
2022/08/19 11:00:43;;;;;;;17.00;12.30;;;30.00;93.40;;;;;;5093185;28;20040;-68
2022/08/19 11:03:09;;;;;;;15.73;14.13;;;29.70;93.50;;;;;;5111527;28;20419;-67
2022/08/19 11:05:37;;;;;;;18.67;13.95;;;29.50;92.90;;;;;;5093185;28;20051;-68
2022/08/19 11:08:03;;;;;;;18.50;13.33;;;29.30;94.10;;;;;;5093142;28;20040;-67
2022/08/19 11:10:29;;;;;;;14.80;12.85;;;29.30;94.80;;;;;;5066336;28;1220665;-68
2022/08/19 11:12:55;;;;;;;15.98;12.35;;;29.40;95.70;;;;;;5077104;28;20051;-67
2022/08/19 11:15:21;;;;;;;15.05;12.82;;;29.50;94.50;;;;;;5094000;28;20035;-68
2022/08/19 11:17:47;;;;;;;17.40;14.52;;;29.40;94.60;;;;;;5093873;28;20071;-68
2022/08/19 11:20:14;;;;;;;19.95;16.27;;;29.40;94.60;;;;;;5077410;28;20070;-67
2022/08/19 11:22:41;;;;;;;18.17;14.38;;;29.20;93.70;;;;;;5093725;28;20514;-67
2022/08/19 11:25:09;;;;;;;16.45;14.75;;;28.90;95.20;;;;;;5093756;28;20039;-68
2022/08/19 11:27:42;;;;;;;16.88;14.60;;;28.70;95.30;;;;;;5111961;28;20036;-68
2022/08/19 11:30:10;;;;;;;21.13;16.92;;;28.60;94.50;;;;;;5077175;28;20042;-68
2022/08/19 11:32:36;;;;;;;18.27;16.27;;;28.50;93.90;;;;;;5093978;28;20032;-67
2022/08/19 11:35:02;;;;;;;18.85;15.43;;;28.30;95.30;;;;;;5112038;28;20484;-67
2022/08/19 11:37:28;;;;;;;19.52;17.08;;;28.20;97.30;;;;;;5093721;28;20044;-68
2022/08/19 11:39:54;;;;;;;18.95;16.75;;;28.20;98.20;;;;;;5109370;28;20096;-68
2022/08/19 11:45:04;;;;;;;22.20;19.85;;;28.10;98.00;;;;;;5111800;28;20051;-68
2022/08/19 11:47:30;;;;;;;24.25;21.08;;;28.20;98.80;;;;;;5093881;28;20047;-68
2022/08/19 11:49:56;;;;;;;22.10;17.48;;;28.40;98.80;;;;;;5093634;28;20043;-67
2022/08/19 11:52:22;;;;;;;21.60;18.75;;;28.50;98.20;;;;;;5093619;28;20035;-67
2022/08/19 11:54:48;;;;;;;21.88;17.58;;;28.40;97.80;;;;;;5093793;28;20506;-67
2022/08/19 11:57:16;;;;;;;19.80;16.58;;;28.30;98.10;;;;;;5076949;28;20100;-67
2022/08/19 11:59:47;;;;;;;21.33;19.10;;;28.20;98.40;;;;;;5090958;28;20067;-67
2022/08/19 12:02:15;;;;;;;22.98;18.60;;;28.00;97.80;;;;;;5090871;28;20039;-67
2022/08/19 12:04:41;;;;;;;24.30;15.90;;;27.80;98.80;;;;;;5092837;28;20047;-67
2022/08/19 12:07:06;;;;;;;19.67;17.17;;;27.90;99.40;;;;;;5095699;28;20085;-67
2022/08/19 12:09:34;;;;;;;20.92;16.17;;;28.00;98.00;;;;;;5094395;28;20093;-67
2022/08/19 12:12:01;;;;;;;20.33;17.02;;;28.00;98.00;;;;;;5116040;28;20044;-67
2022/08/19 12:14:29;;;;;;;19.30;16.98;;;27.80;97.70;;;;;;5116034;28;20047;-67
2022/08/19 12:16:56;;;;;;;24.02;19.02;;;27.50;98.10;;;;;;5115996;28;20357;-67
2022/08/19 12:19:21;;;;;;;25.42;20.50;;;27.20;98.90;;;;;;5083785;28;20636;-66
2022/08/19 12:21:48;;;;;;;26.42;20.92;;;27.10;99.40;;;;;;5095674;28;20118;-67
2022/08/19 12:24:14;;;;;;;24.95;21.13;;;27.00;99.90;;;;;;5080429;28;20028;-68
2022/08/19 12:26:40;;;;;;;24.27;20.45;;;27.00;99.70;;;;;;5080406;28;20143;-67
2022/08/19 12:29:06;;;;;;;23.90;18.27;;;27.00;99.80;;;;;;5097247;28;20113;-67
2022/08/19 12:31:32;;;;;;;19.70;17.02;;;27.20;99.90;;;;;;5115431;28;20118;-68
2022/08/19 12:33:59;;;;;;;26.73;21.33;;;27.40;99.90;;;;;;5115355;28;20114;-67
2022/08/19 12:36:25;;;;;;;27.35;19.73;;;27.50;99.90;;;;;;5115485;28;20179;-68
2022/08/19 12:38:52;;;;;;;23.08;18.60;;;27.40;99.90;;;;;;5097136;28;20050;-67
2022/08/19 12:41:19;;;;;;;27.83;19.30;;;27.20;99.90;;;;;;5113331;28;20044;-67
2022/08/19 12:43:45;;;;;;;25.42;18.65;;;27.10;99.90;;;;;;5079998;28;20078;-67
2022/08/19 12:46:12;;;;;;;29.67;20.48;;;26.90;99.90;;;;;;5115069;28;20035;-67
2022/08/19 12:48:41;;;;;;;22.70;20.42;;;26.70;99.90;;;;;;5097088;28;20042;-67
2022/08/19 12:51:10;;;;;;;25.48;20.88;;;26.40;99.90;;;;;;5115280;28;20075;-67
2022/08/19 12:53:37;;;;;;;27.02;20.92;;;26.10;99.90;;;;;;5097081;28;20044;-66
2022/08/19 12:56:04;;;;;;;24.15;21.05;;;25.90;99.90;;;;;;5097278;28;20110;-66
2022/08/19 12:58:31;;;;;;;26.80;21.80;;;25.70;99.90;;;;;;5115172;28;20123;-66
2022/08/19 13:00:57;;;;;;;24.25;20.77;;;25.50;99.90;;;;;;5115197;28;20438;-66